createdAt,value
2019-01-28T00:00:51.713Z,11.07
2019-01-28T00:03:22.649Z,11.97
2019-01-28T00:05:51.253Z,14.20
2019-01-28T00:08:20.545Z,13.60
2019-01-28T00:10:49.004Z,11.30
2019-01-28T00:13:17.718Z,11.50
2019-01-28T00:15:49.858Z,17.87
2019-01-28T00:18:18.477Z,12.70
2019-01-28T00:20:47.261Z,13.00
2019-01-28T00:23:15.613Z,11.00
2019-01-28T00:25:43.981Z,11.67
2019-01-28T00:28:12.688Z,16.67
2019-01-28T00:30:45.863Z,11.13
2019-01-28T00:33:14.577Z,13.77
2019-01-28T00:35:43.643Z,11.10
2019-01-28T00:38:12.031Z,10.43
2019-01-28T00:40:40.635Z,14.03
2019-01-28T00:43:09.554Z,15.60
2019-01-28T00:45:39.289Z,13.77
2019-01-28T00:48:07.623Z,10.50
2019-01-28T00:50:35.942Z,14.27
2019-01-28T00:53:05.183Z,15.13
2019-01-28T00:55:34.270Z,8.60
2019-01-28T00:58:03.973Z,9.57
2019-01-28T01:00:33.010Z,13.80
2019-01-28T01:03:02.466Z,16.10
2019-01-28T01:05:31.399Z,7.57
2019-01-28T01:08:00.341Z,7.70
2019-01-28T01:10:28.631Z,15.17
2019-01-28T01:12:57.409Z,12.00
2019-01-28T01:15:26.090Z,10.00
2019-01-28T01:17:54.488Z,8.37
2019-01-28T01:20:22.946Z,10.70
2019-01-28T01:22:51.530Z,9.07
2019-01-28T01:25:21.052Z,7.63
2019-01-28T01:27:50.551Z,12.53
2019-01-28T01:30:19.423Z,8.83
2019-01-28T01:32:47.990Z,9.03
2019-01-28T01:35:16.790Z,7.73
2019-01-28T01:37:45.694Z,8.87
2019-01-28T01:40:15.213Z,7.30
2019-01-28T01:42:43.830Z,8.30
2019-01-28T01:45:14.179Z,9.00
2019-01-28T01:47:42.926Z,6.90
2019-01-28T01:50:12.083Z,5.87
2019-01-28T01:52:40.743Z,9.80
2019-01-28T01:55:10.806Z,8.77
2019-01-28T01:57:39.483Z,7.60
2019-01-28T02:00:11.876Z,6.97
2019-01-28T02:02:40.860Z,8.70
2019-01-28T02:05:09.694Z,6.27
2019-01-28T02:07:38.953Z,8.33
2019-01-28T02:10:10.590Z,9.23
2019-01-28T02:12:39.283Z,11.83
2019-01-28T02:15:14.212Z,6.13
2019-01-28T02:17:42.503Z,9.83
2019-01-28T02:20:12.174Z,8.47
2019-01-28T02:22:40.675Z,10.23
2019-01-28T02:25:10.092Z,9.33
2019-01-28T02:27:38.845Z,11.43
2019-01-28T02:30:09.365Z,7.67
2019-01-28T02:32:38.810Z,13.63
2019-01-28T02:35:07.836Z,9.00
2019-01-28T02:37:36.474Z,11.10
2019-01-28T02:40:07.271Z,11.57
2019-01-28T02:42:36.093Z,11.43
2019-01-28T02:45:06.401Z,9.93
2019-01-28T02:47:35.470Z,11.23
2019-01-28T02:50:05.673Z,15.00
2019-01-28T02:52:33.908Z,9.30
2019-01-28T02:55:02.709Z,8.07
2019-01-28T02:57:31.266Z,7.30
2019-01-28T03:00:00.021Z,14.07
2019-01-28T03:02:28.705Z,9.17
2019-01-28T03:04:57.434Z,8.90
2019-01-28T03:07:26.018Z,9.17
2019-01-28T03:09:54.331Z,6.67
2019-01-28T03:12:23.495Z,9.83
2019-01-28T03:14:52.336Z,10.43
2019-01-28T03:17:23.572Z,6.80
2019-01-28T03:19:52.174Z,9.00
2019-01-28T03:22:20.987Z,9.97
2019-01-28T03:24:49.721Z,7.73
2019-01-28T03:27:18.773Z,7.80
2019-01-28T03:29:47.634Z,9.20
2019-01-28T03:32:16.384Z,9.13
2019-01-28T03:34:45.258Z,9.73
2019-01-28T03:37:13.930Z,11.17
2019-01-28T03:39:42.777Z,7.93
2019-01-28T03:42:11.865Z,10.00
2019-01-28T03:44:40.620Z,12.73
2019-01-28T03:47:10.967Z,13.97
2019-01-28T03:49:39.625Z,9.70
2019-01-28T03:52:10.098Z,11.43
2019-01-28T03:54:38.634Z,10.40
2019-01-28T03:57:07.609Z,11.00
2019-01-28T03:59:35.895Z,9.43
2019-01-28T04:02:04.394Z,7.90
2019-01-28T04:04:33.326Z,9.60
2019-01-28T04:07:02.196Z,8.33
2019-01-28T04:09:31.610Z,9.07
2019-01-28T04:12:00.554Z,7.93
2019-01-28T04:14:29.135Z,7.80
2019-01-28T04:16:57.819Z,11.20
2019-01-28T04:19:29.577Z,11.40
2019-01-28T04:21:58.492Z,8.33
2019-01-28T04:24:26.942Z,14.03
2019-01-28T04:26:57.269Z,7.43
2019-01-28T04:29:25.973Z,9.13
2019-01-28T04:31:55.341Z,10.60
2019-01-28T04:34:24.406Z,11.63
2019-01-28T04:36:53.051Z,10.37
2019-01-28T04:39:22.031Z,9.00
2019-01-28T04:41:50.878Z,11.03
2019-01-28T04:44:19.728Z,11.73
2019-01-28T04:46:48.383Z,12.17
2019-01-28T04:49:17.700Z,9.53
2019-01-28T04:51:46.846Z,12.33
2019-01-28T04:54:15.462Z,8.50
2019-01-28T04:56:44.140Z,11.97
2019-01-28T04:59:12.668Z,8.90
2019-01-28T05:01:41.305Z,10.30
2019-01-28T05:04:10.582Z,7.53
2019-01-28T05:06:39.539Z,7.77
2019-01-28T05:09:09.010Z,7.97
2019-01-28T05:11:37.847Z,6.83
2019-01-28T05:14:06.401Z,6.73
2019-01-28T05:16:35.053Z,11.63
2019-01-28T05:19:03.756Z,8.13
2019-01-28T05:21:35.783Z,8.40
2019-01-28T05:24:04.612Z,7.20
2019-01-28T05:26:33.307Z,7.93
2019-01-28T05:29:02.398Z,7.73
2019-01-28T05:31:31.068Z,6.60
2019-01-28T05:34:00.505Z,9.13
2019-01-28T05:36:28.970Z,11.83
2019-01-28T05:38:57.558Z,7.77
2019-01-28T05:41:25.943Z,6.17
2019-01-28T05:43:54.439Z,9.17
2019-01-28T05:46:22.981Z,10.47
2019-01-28T05:48:52.278Z,12.27
2019-01-28T05:51:21.203Z,13.43
2019-01-28T05:53:50.126Z,11.63
2019-01-28T05:56:18.930Z,12.03
2019-01-28T05:58:47.361Z,9.47
2019-01-28T06:01:16.096Z,10.93
2019-01-28T06:03:44.302Z,9.00
2019-01-28T06:06:13.098Z,10.53
2019-01-28T06:08:41.861Z,11.27
2019-01-28T06:11:10.437Z,8.23
2019-01-28T06:13:38.967Z,10.40
2019-01-28T06:16:07.633Z,9.77
2019-01-28T06:18:36.297Z,9.30
2019-01-28T06:21:04.753Z,11.93
2019-01-28T06:23:35.118Z,9.53
2019-01-28T06:26:03.485Z,12.03
2019-01-28T06:28:32.274Z,8.43
2019-01-28T06:31:00.649Z,14.73
2019-01-28T06:33:29.208Z,11.77
2019-01-28T06:35:57.965Z,8.53
2019-01-28T06:38:26.624Z,10.37
2019-01-28T06:40:55.498Z,10.90
2019-01-28T06:43:24.238Z,13.00
2019-01-28T06:45:52.778Z,7.23
2019-01-28T06:48:21.362Z,9.70
2019-01-28T06:50:49.842Z,11.23
2019-01-28T06:53:18.471Z,9.87
2019-01-28T06:55:47.004Z,9.73
2019-01-28T06:58:15.400Z,9.13
2019-01-28T07:00:43.975Z,9.60
2019-01-28T07:03:13.031Z,11.87
2019-01-28T07:05:41.571Z,8.47
2019-01-28T07:08:10.256Z,11.07
2019-01-28T07:10:39.589Z,9.53
2019-01-28T07:13:08.248Z,7.93
2019-01-28T07:15:36.959Z,9.33
2019-01-28T07:18:05.771Z,7.53
2019-01-28T07:20:34.516Z,10.80
2019-01-28T07:23:03.073Z,7.23
2019-01-28T07:25:36.028Z,10.40
2019-01-28T07:28:05.137Z,7.93
2019-01-28T07:30:35.784Z,9.83
2019-01-28T07:33:04.638Z,7.97
2019-01-28T07:35:33.582Z,9.73
2019-01-28T07:38:02.434Z,8.63
2019-01-28T07:40:31.110Z,10.23
2019-01-28T07:42:59.827Z,9.00
2019-01-28T07:45:44.699Z,8.97
2019-01-28T07:48:07.251Z,9.17
2019-01-28T07:50:36.506Z,7.83
2019-01-28T07:53:05.965Z,10.90
2019-01-28T07:55:34.315Z,8.10
2019-01-28T07:58:03.285Z,7.50
2019-01-28T08:00:32.053Z,5.33
2019-01-28T08:03:01.082Z,8.87
2019-01-28T08:05:31.827Z,11.93
2019-01-28T08:08:00.773Z,8.17
2019-01-28T08:10:29.550Z,6.87
2019-01-28T08:12:58.368Z,10.50
2019-01-28T08:15:27.671Z,8.37
2019-01-28T08:17:56.372Z,11.60
2019-01-28T08:20:24.830Z,7.97
2019-01-28T08:22:53.552Z,9.30
2019-01-28T08:25:21.882Z,9.17
2019-01-28T08:27:50.481Z,9.97
2019-01-28T08:30:28.236Z,7.03
2019-01-28T08:32:57.474Z,9.50
2019-01-28T08:35:28.951Z,9.93
2019-01-28T08:40:40.801Z,13.77
2019-01-28T08:43:09.212Z,11.23
2019-01-28T08:45:37.598Z,9.47
2019-01-28T08:48:06.193Z,9.03
2019-01-28T08:50:34.478Z,8.83
2019-01-28T08:53:03.225Z,9.43
2019-01-28T08:55:32.106Z,10.43
2019-01-28T08:58:02.930Z,10.17
2019-01-28T09:00:34.751Z,11.00
2019-01-28T09:03:03.774Z,8.40
2019-01-28T09:05:32.495Z,11.37
2019-01-28T09:08:01.404Z,9.97
2019-01-28T09:10:30.490Z,12.00
2019-01-28T09:12:59.177Z,12.20
2019-01-28T09:15:28.097Z,10.77
2019-01-28T09:17:56.543Z,8.90
2019-01-28T09:20:25.434Z,7.43
2019-01-28T09:22:54.006Z,7.53
2019-01-28T09:25:23.013Z,12.00
2019-01-28T09:27:52.077Z,13.90
2019-01-28T09:30:33.193Z,10.70
2019-01-28T09:33:01.950Z,10.83
2019-01-28T09:35:43.626Z,11.40
2019-01-28T09:38:12.492Z,9.97
2019-01-28T09:40:41.074Z,10.17
2019-01-28T09:43:10.879Z,7.87
2019-01-28T09:45:40.839Z,10.17
2019-01-28T09:48:21.626Z,15.10
2019-01-28T09:50:50.530Z,8.03
2019-01-28T09:53:19.660Z,10.13
2019-01-28T09:55:48.977Z,11.10
2019-01-28T09:58:17.998Z,7.97
2019-01-28T10:00:49.937Z,11.63
2019-01-28T10:03:18.249Z,8.10
2019-01-28T10:05:46.829Z,8.07
2019-01-28T10:08:15.254Z,8.40
2019-01-28T10:10:44.150Z,8.07
2019-01-28T10:13:12.480Z,7.73
2019-01-28T10:15:41.189Z,10.30
2019-01-28T10:18:09.853Z,10.67
2019-01-28T10:20:44.782Z,9.43
2019-01-28T10:23:13.938Z,9.37
2019-01-28T10:25:42.837Z,8.60
2019-01-28T10:28:12.677Z,8.80
2019-01-28T10:30:42.349Z,10.17
2019-01-28T10:33:11.290Z,8.87
2019-01-28T10:35:41.736Z,9.20
2019-01-28T10:38:10.687Z,10.10
2019-01-28T10:40:45.866Z,8.90
2019-01-28T10:43:14.536Z,12.53
2019-01-28T10:45:43.796Z,8.60
2019-01-28T10:48:12.438Z,6.80
2019-01-28T10:50:42.708Z,6.23
2019-01-28T10:53:11.823Z,7.83
2019-01-28T10:55:40.643Z,8.47
2019-01-28T10:58:09.314Z,9.37
2019-01-28T11:00:41.248Z,12.53
2019-01-28T11:03:10.954Z,12.27
2019-01-28T11:05:39.371Z,11.47
2019-01-28T11:08:08.050Z,13.20
2019-01-28T11:10:36.734Z,10.83
2019-01-28T11:13:06.162Z,12.63
2019-01-28T11:15:34.873Z,11.27
2019-01-28T11:18:06.980Z,11.20
2019-01-28T11:20:37.010Z,10.03
2019-01-28T11:23:05.494Z,8.17
2019-01-28T11:25:34.556Z,12.60
2019-01-28T11:28:03.940Z,8.60
2019-01-28T11:30:44.726Z,12.00
2019-01-28T11:33:13.576Z,11.27
2019-01-28T11:35:42.918Z,11.67
2019-01-28T11:38:14.696Z,6.83
2019-01-28T11:40:43.629Z,16.23
2019-01-28T11:43:12.224Z,30.17
2019-01-28T11:45:44.362Z,9.80
2019-01-28T11:48:13.537Z,5.97
2019-01-28T11:50:42.314Z,7.60
2019-01-28T11:53:10.733Z,8.27
2019-01-28T11:55:39.391Z,9.40
2019-01-28T11:58:08.735Z,9.80
2019-01-28T12:01:03.104Z,8.37
2019-01-28T12:03:31.668Z,6.00
2019-01-28T12:06:00.372Z,6.80
2019-01-28T12:08:29.265Z,12.47
2019-01-28T12:10:57.701Z,10.00
2019-01-28T12:13:26.397Z,7.43
2019-01-28T12:15:55.109Z,6.97
2019-01-28T12:18:23.781Z,9.03
2019-01-28T12:20:53.719Z,7.67
2019-01-28T12:23:22.822Z,8.43
2019-01-28T12:25:51.468Z,8.80
2019-01-28T12:28:19.764Z,7.40
2019-01-28T12:30:51.367Z,11.33
2019-01-28T12:33:20.167Z,8.53
2019-01-28T12:35:49.123Z,8.60
2019-01-28T12:38:17.765Z,8.63
2019-01-28T12:40:46.760Z,8.13
2019-01-28T12:43:15.593Z,6.30
2019-01-28T12:45:59.032Z,9.23
2019-01-28T12:48:27.336Z,8.43
2019-01-28T12:50:56.126Z,7.43
2019-01-28T12:53:24.629Z,6.57
2019-01-28T12:55:53.286Z,8.37
2019-01-28T12:58:21.990Z,11.50
2019-01-28T13:00:56.912Z,9.30
2019-01-28T13:03:25.995Z,13.13
2019-01-28T13:06:09.333Z,7.53
2019-01-28T13:08:38.843Z,9.43
2019-01-28T13:11:07.586Z,9.47
2019-01-28T13:13:40.979Z,11.43
2019-01-28T13:16:12.460Z,8.53
2019-01-28T13:18:40.975Z,9.47
2019-01-28T13:21:09.747Z,8.93
2019-01-28T13:23:38.349Z,6.00
2019-01-28T13:26:07.300Z,7.07
2019-01-28T13:28:35.901Z,9.23
2019-01-28T13:31:04.830Z,10.40
2019-01-28T13:33:33.742Z,10.47
2019-01-28T13:36:09.442Z,7.10
2019-01-28T13:38:35.458Z,11.50
2019-01-28T13:41:04.062Z,8.77
2019-01-28T13:43:32.815Z,7.53
2019-01-28T13:46:01.323Z,7.23
2019-01-28T13:48:29.902Z,8.93
2019-01-28T13:50:58.308Z,8.10
2019-01-28T13:53:26.860Z,9.17
2019-01-28T13:55:55.534Z,8.47
2019-01-28T13:58:24.252Z,6.23
2019-01-28T14:00:53.003Z,8.20
2019-01-28T14:03:21.286Z,10.90
2019-01-28T14:05:49.797Z,8.27
2019-01-28T14:08:18.262Z,7.00
2019-01-28T14:10:46.898Z,5.60
2019-01-28T14:13:15.809Z,7.10
2019-01-28T14:15:44.826Z,8.80
2019-01-28T14:18:13.501Z,9.33
2019-01-28T14:20:42.249Z,7.00
2019-01-28T14:23:11.426Z,7.00
2019-01-28T14:25:39.978Z,6.97
2019-01-28T14:28:09.659Z,7.87
2019-01-28T14:30:42.956Z,14.20
2019-01-28T14:33:12.407Z,7.77
2019-01-28T14:35:41.169Z,8.63
2019-01-28T14:38:11.492Z,7.43
2019-01-28T14:40:40.788Z,4.67
2019-01-28T14:43:09.855Z,8.43
2019-01-28T14:45:38.693Z,7.80
2019-01-28T14:48:09.110Z,6.93
2019-01-28T14:50:37.969Z,7.23
2019-01-28T14:53:06.890Z,8.13
2019-01-28T14:55:35.294Z,7.87
2019-01-28T14:58:05.555Z,8.17
2019-01-28T15:00:36.133Z,5.83
2019-01-28T15:03:04.996Z,7.00
2019-01-28T15:05:34.864Z,8.97
2019-01-28T15:08:03.661Z,8.67
2019-01-28T15:10:32.272Z,5.07
2019-01-28T15:13:00.945Z,4.73
2019-01-28T15:15:32.506Z,6.13
2019-01-28T15:18:06.230Z,7.93
2019-01-28T15:20:34.623Z,7.77
2019-01-28T15:23:03.814Z,7.60
2019-01-28T15:25:32.383Z,10.17
2019-01-28T15:28:00.807Z,7.77
2019-01-28T15:30:29.561Z,7.53
2019-01-28T15:32:57.968Z,6.07
2019-01-28T15:35:26.561Z,6.73
2019-01-28T15:37:54.902Z,7.47
2019-01-28T15:40:26.153Z,6.73
2019-01-28T15:42:54.929Z,8.13
2019-01-28T15:45:28.840Z,6.53
2019-01-28T15:47:57.237Z,8.07
2019-01-28T15:50:30.528Z,9.03
2019-01-28T15:52:59.191Z,5.80
2019-01-28T15:55:36.104Z,10.03
2019-01-28T15:58:06.241Z,7.57
2019-01-28T16:00:35.497Z,7.13
2019-01-28T16:03:06.515Z,7.93
2019-01-28T16:05:40.650Z,10.93
2019-01-28T16:08:09.192Z,5.67
2019-01-28T16:10:37.707Z,8.67
2019-01-28T16:13:06.790Z,8.67
2019-01-28T16:15:38.419Z,8.00
2019-01-28T16:18:09.073Z,11.00
2019-01-28T16:20:38.109Z,8.00
2019-01-28T16:23:07.666Z,8.40
2019-01-28T16:25:36.571Z,8.30
2019-01-28T16:28:05.573Z,9.87
2019-01-28T16:30:34.766Z,9.73
2019-01-28T16:33:04.598Z,10.80
2019-01-28T16:35:33.002Z,15.83
2019-01-28T16:38:02.463Z,14.93
2019-01-28T16:40:31.640Z,12.97
2019-01-28T16:43:00.354Z,10.63
2019-01-28T16:45:29.230Z,14.07
2019-01-28T16:47:57.905Z,17.67
2019-01-28T16:50:28.680Z,17.97
2019-01-28T16:52:57.223Z,14.57
2019-01-28T16:55:25.514Z,11.93
2019-01-28T16:57:54.527Z,10.47
2019-01-28T17:00:28.123Z,12.43
2019-01-28T17:02:56.808Z,15.07
2019-01-28T17:05:26.140Z,10.30
2019-01-28T17:07:54.763Z,10.53
2019-01-28T17:10:23.579Z,10.57
2019-01-28T17:12:52.340Z,9.37
2019-01-28T17:15:21.128Z,9.83
2019-01-28T17:17:49.733Z,10.73
2019-01-28T17:20:20.454Z,10.77
2019-01-28T17:22:48.730Z,8.43
2019-01-28T17:25:19.882Z,12.50
2019-01-28T17:27:48.143Z,10.67
2019-01-28T17:30:23.608Z,10.93
2019-01-28T17:32:52.219Z,11.10
2019-01-28T17:35:20.956Z,11.03
2019-01-28T17:37:50.363Z,8.30
2019-01-28T17:40:19.397Z,11.53
2019-01-28T17:42:48.038Z,15.80
2019-01-28T17:45:18.489Z,16.47
2019-01-28T17:47:47.166Z,12.63
2019-01-28T17:50:17.243Z,10.23
2019-01-28T17:52:46.177Z,9.13
2019-01-28T17:55:15.930Z,9.83
2019-01-28T17:57:44.345Z,16.57
2019-01-28T18:00:15.733Z,12.73
2019-01-28T18:02:44.073Z,13.63
2019-01-28T18:05:13.170Z,11.80
2019-01-28T18:07:41.885Z,10.97
2019-01-28T18:10:11.697Z,13.30
2019-01-28T18:12:40.488Z,18.00
2019-01-28T18:15:11.936Z,16.43
2019-01-28T18:17:49.172Z,16.63
2019-01-28T18:20:18.794Z,16.90
2019-01-28T18:22:47.440Z,16.47
2019-01-28T18:25:18.028Z,17.87
2019-01-28T18:27:46.864Z,20.80
2019-01-28T18:30:20.131Z,21.47
2019-01-28T18:32:49.022Z,16.67
2019-01-28T18:35:17.790Z,17.57
2019-01-28T18:37:47.212Z,16.40
2019-01-28T18:40:16.014Z,13.70
2019-01-28T18:42:44.564Z,19.97
2019-01-28T18:45:18.178Z,35.23
2019-01-28T18:47:50.884Z,29.20
2019-01-28T18:50:22.506Z,32.60
2019-01-28T18:52:51.821Z,29.50
2019-01-28T18:55:21.940Z,20.53
2019-01-28T18:57:50.835Z,18.60
2019-01-28T19:00:21.880Z,18.80
2019-01-28T19:02:50.225Z,18.60
2019-01-28T19:05:45.606Z,15.67
2019-01-28T19:08:33.613Z,19.17
2019-01-28T19:11:11.503Z,15.53
2019-01-28T19:14:02.387Z,13.30
2019-01-28T19:16:57.654Z,14.97
2019-01-28T19:20:03.762Z,13.27
2019-01-28T19:22:32.979Z,9.97
2019-01-28T19:25:01.544Z,15.03
2019-01-28T19:27:30.319Z,11.97
2019-01-28T19:29:59.038Z,12.03
2019-01-28T19:32:30.211Z,10.83
2019-01-28T19:35:15.703Z,13.60
2019-01-28T19:37:47.301Z,12.80
2019-01-28T19:40:18.294Z,13.23
2019-01-28T19:42:52.074Z,13.63
2019-01-28T19:45:29.740Z,13.90
2019-01-28T19:48:01.847Z,13.83
2019-01-28T19:50:40.043Z,14.13
2019-01-28T19:53:11.823Z,12.73
2019-01-28T19:55:46.271Z,14.77
2019-01-28T19:58:17.176Z,13.47
2019-01-28T20:00:57.858Z,11.87
2019-01-28T20:03:30.156Z,14.27
2019-01-28T20:06:05.412Z,11.30
2019-01-28T20:08:37.714Z,11.73
2019-01-28T20:11:06.577Z,13.93
2019-01-28T20:13:35.153Z,12.77
2019-01-28T20:16:06.072Z,12.70
2019-01-28T20:18:35.324Z,10.33
2019-01-28T20:21:05.481Z,11.40
2019-01-28T20:23:34.183Z,12.53
2019-01-28T20:26:02.909Z,11.67
2019-01-28T20:28:31.611Z,11.83
2019-01-28T20:31:00.294Z,15.83
2019-01-28T20:33:28.982Z,12.63
2019-01-28T20:35:58.217Z,13.93
2019-01-28T20:38:26.489Z,11.67
2019-01-28T20:40:55.247Z,12.87
2019-01-28T20:43:24.368Z,13.20
2019-01-28T20:45:52.689Z,12.97
2019-01-28T20:48:21.486Z,12.17
2019-01-28T20:50:49.823Z,10.07
2019-01-28T20:53:18.453Z,9.63
2019-01-28T20:55:47.151Z,9.23
2019-01-28T20:58:15.770Z,9.60
2019-01-28T21:00:44.276Z,14.23
2019-01-28T21:03:13.007Z,22.17
2019-01-28T21:05:41.687Z,21.37
2019-01-28T21:08:10.232Z,17.67
2019-01-28T21:10:38.548Z,16.33
2019-01-28T21:13:07.111Z,13.80
2019-01-28T21:15:35.833Z,11.50
2019-01-28T21:18:04.730Z,15.00
2019-01-28T21:20:33.395Z,15.37
2019-01-28T21:23:01.712Z,14.03
2019-01-28T21:25:30.100Z,14.00
2019-01-28T21:27:58.803Z,13.37
2019-01-28T21:30:30.161Z,15.90
2019-01-28T21:32:59.154Z,11.73
2019-01-28T21:35:45.837Z,11.07
2019-01-28T21:38:18.796Z,13.27
2019-01-28T21:40:48.065Z,13.17
2019-01-28T21:43:16.706Z,15.37
2019-01-28T21:45:45.625Z,18.50
2019-01-28T21:48:14.905Z,15.03
2019-01-28T21:50:43.937Z,14.33
2019-01-28T21:53:12.221Z,12.97
2019-01-28T21:55:40.894Z,12.17
2019-01-28T21:58:09.414Z,11.13
2019-01-28T22:00:38.320Z,16.07
2019-01-28T22:03:07.305Z,16.07
2019-01-28T22:05:36.506Z,11.80
2019-01-28T22:08:05.226Z,11.60
2019-01-28T22:10:33.883Z,12.77
2019-01-28T22:13:02.574Z,10.83
2019-01-28T22:15:31.605Z,15.87
2019-01-28T22:18:00.144Z,12.37
2019-01-28T22:20:28.511Z,12.93
2019-01-28T22:22:57.073Z,14.10
2019-01-28T22:25:25.769Z,13.20
2019-01-28T22:27:57.372Z,12.27
2019-01-28T22:30:24.965Z,13.20
2019-01-28T22:32:53.670Z,14.53
2019-01-28T22:35:22.341Z,13.50
2019-01-28T22:37:50.602Z,14.17
2019-01-28T22:40:19.641Z,12.53
2019-01-28T22:42:48.193Z,14.77
2019-01-28T22:45:16.883Z,12.67
2019-01-28T22:47:45.591Z,14.17
2019-01-28T22:50:15.472Z,13.57
2019-01-28T22:52:44.161Z,14.63
2019-01-28T22:55:14.185Z,11.60
2019-01-28T22:57:42.557Z,15.43
2019-01-28T23:00:26.491Z,14.10
2019-01-28T23:02:56.935Z,11.57
2019-01-28T23:05:25.481Z,13.83
2019-01-28T23:07:53.827Z,13.10
2019-01-28T23:10:22.577Z,14.23
2019-01-28T23:12:51.309Z,14.03
2019-01-28T23:15:20.034Z,16.00
2019-01-28T23:17:48.497Z,16.63
2019-01-28T23:20:16.812Z,18.00
2019-01-28T23:22:45.483Z,16.00
2019-01-28T23:25:14.041Z,13.90
2019-01-28T23:27:42.974Z,13.93
2019-01-28T23:30:12.538Z,11.60
2019-01-28T23:32:41.209Z,12.90
2019-01-28T23:35:09.930Z,12.73
2019-01-28T23:37:38.638Z,12.50
2019-01-28T23:40:08.399Z,15.93
2019-01-28T23:42:36.980Z,12.53
2019-01-28T23:45:05.903Z,14.27
2019-01-28T23:47:34.851Z,13.37
2019-01-28T23:50:04.238Z,13.77
2019-01-28T23:52:32.965Z,11.63
2019-01-28T23:55:01.409Z,14.20
2019-01-28T23:57:29.823Z,12.30
2019-01-28T23:59:58.403Z,12.90
